sensor_id;sensor_type;location;lat;lon;timestamp;pressure;altitude;pressure_sealevel;temperature;humidity
41800;BME280;27468;47.460;19.034;2023-10-13T00:01:01;100509.72;;;14.16;100.00
41800;BME280;27468;47.460;19.034;2023-10-13T00:03:30;100588.75;;;14.59;100.00
41800;BME280;27468;47.460;19.034;2023-10-13T00:05:59;100524.69;;;14.17;100.00
41800;BME280;27468;47.460;19.034;2023-10-13T00:08:31;100594.41;;;14.48;100.00
41800;BME280;27468;47.460;19.034;2023-10-13T00:10:56;100597.16;;;14.45;100.00
41800;BME280;27468;47.460;19.034;2023-10-13T00:13:28;100568.81;;;14.19;100.00
41800;BME280;27468;47.460;19.034;2023-10-13T00:15:57;100591.53;;;14.28;100.00
41800;BME280;27468;47.460;19.034;2023-10-13T00:18:27;100533.22;;;13.99;100.00
41800;BME280;27468;47.460;19.034;2023-10-13T00:20:58;100592.19;;;14.35;100.00
41800;BME280;27468;47.460;19.034;2023-10-13T00:23:23;100569.63;;;14.21;100.00
41800;BME280;27468;47.460;19.034;2023-10-13T00:25:52;100574.06;;;14.21;100.00
41800;BME280;27468;47.460;19.034;2023-10-13T00:28:28;100582.78;;;14.25;100.00
41800;BME280;27468;47.460;19.034;2023-10-13T00:31:01;100562.34;;;14.00;100.00
41800;BME280;27468;47.460;19.034;2023-10-13T00:33:38;100580.81;;;14.03;100.00
41800;BME280;27468;47.460;19.034;2023-10-13T00:36:04;100544.94;;;13.92;100.00
41800;BME280;27468;47.460;19.034;2023-10-13T00:38:30;100585.63;;;14.18;100.00
41800;BME280;27468;47.460;19.034;2023-10-13T00:40:56;100540.25;;;14.00;100.00
41800;BME280;27468;47.460;19.034;2023-10-13T00:43:28;100599.25;;;14.36;100.00
41800;BME280;27468;47.460;19.034;2023-10-13T00:45:56;100593.03;;;14.37;100.00
41800;BME280;27468;47.460;19.034;2023-10-13T00:50:58;100589.50;;;14.36;100.00
41800;BME280;27468;47.460;19.034;2023-10-13T00:53:35;100544.19;;;14.16;100.00
41800;BME280;27468;47.460;19.034;2023-10-13T00:56:08;100580.00;;;14.29;100.00
41800;BME280;27468;47.460;19.034;2023-10-13T00:58:43;100596.50;;;14.39;100.00
41800;BME280;27468;47.460;19.034;2023-10-13T01:01:08;100600.06;;;14.38;100.00
41800;BME280;27468;47.460;19.034;2023-10-13T01:03:52;100543.44;;;14.11;100.00
41800;BME280;27468;47.460;19.034;2023-10-13T01:06:33;100551.44;;;14.09;100.00
41800;BME280;27468;47.460;19.034;2023-10-13T01:11:41;100566.13;;;14.21;100.00
41800;BME280;27468;47.460;19.034;2023-10-13T01:14:09;100524.69;;;13.89;100.00
41800;BME280;27468;47.460;19.034;2023-10-13T01:16:36;100574.03;;;14.23;100.00
41800;BME280;27468;47.460;19.034;2023-10-13T01:19:05;100536.66;;;14.02;100.00
41800;BME280;27468;47.460;19.034;2023-10-13T01:21:30;100562.69;;;14.17;100.00
41800;BME280;27468;47.460;19.034;2023-10-13T01:23:59;100592.25;;;14.33;100.00
41800;BME280;27468;47.460;19.034;2023-10-13T01:26:24;100581.69;;;14.32;100.00
41800;BME280;27468;47.460;19.034;2023-10-13T01:28:51;100530.38;;;14.05;100.00
41800;BME280;27468;47.460;19.034;2023-10-13T01:31:17;100553.78;;;14.20;100.00
41800;BME280;27468;47.460;19.034;2023-10-13T01:33:52;100567.78;;;14.24;100.00
41800;BME280;27468;47.460;19.034;2023-10-13T01:36:22;100573.97;;;14.24;100.00
41800;BME280;27468;47.460;19.034;2023-10-13T01:38:48;100506.09;;;13.91;100.00
41800;BME280;27468;47.460;19.034;2023-10-13T01:41:15;100521.72;;;14.00;100.00
41800;BME280;27468;47.460;19.034;2023-10-13T01:43:41;100532.75;;;14.14;100.00
41800;BME280;27468;47.460;19.034;2023-10-13T01:46:07;100564.13;;;14.28;100.00
41800;BME280;27468;47.460;19.034;2023-10-13T01:48:34;100507.63;;;13.98;100.00
41800;BME280;27468;47.460;19.034;2023-10-13T01:51:04;100574.69;;;14.29;100.00
41800;BME280;27468;47.460;19.034;2023-10-13T01:53:31;100568.81;;;14.19;100.00
41800;BME280;27468;47.460;19.034;2023-10-13T01:55:56;100549.66;;;14.10;100.00
41800;BME280;27468;47.460;19.034;2023-10-13T02:01:38;100543.66;;;14.05;100.00
41800;BME280;27468;47.460;19.034;2023-10-13T02:04:05;100546.34;;;14.03;100.00
41800;BME280;27468;47.460;19.034;2023-10-13T02:06:33;100590.47;;;14.34;100.00
41800;BME280;27468;47.460;19.034;2023-10-13T02:09:06;100571.38;;;14.23;100.00
41800;BME280;27468;47.460;19.034;2023-10-13T02:11:39;100563.41;;;14.23;100.00
41800;BME280;27468;47.460;19.034;2023-10-13T02:14:06;100593.03;;;14.37;100.00
41800;BME280;27468;47.460;19.034;2023-10-13T02:16:32;100578.16;;;14.31;100.00
41800;BME280;27468;47.460;19.034;2023-10-13T02:18:58;100606.00;;;14.46;100.00
41800;BME280;27468;47.460;19.034;2023-10-13T02:21:31;100558.06;;;14.24;100.00
41800;BME280;27468;47.460;19.034;2023-10-13T02:24:00;100568.31;;;14.35;100.00
41800;BME280;27468;47.460;19.034;2023-10-13T02:26:30;100569.16;;;14.37;100.00
41800;BME280;27468;47.460;19.034;2023-10-13T02:28:58;100593.66;;;14.45;100.00
41800;BME280;27468;47.460;19.034;2023-10-13T02:31:23;100578.03;;;14.36;100.00
41800;BME280;27468;47.460;19.034;2023-10-13T02:33:50;100597.16;;;14.45;100.00
41800;BME280;27468;47.460;19.034;2023-10-13T02:36:15;100560.84;;;14.19;100.00
41800;BME280;27468;47.460;19.034;2023-10-13T02:38:51;100603.63;;;14.37;100.00
41800;BME280;27468;47.460;19.034;2023-10-13T02:41:19;100621.81;;;14.49;100.00
41800;BME280;27468;47.460;19.034;2023-10-13T02:43:52;100598.22;;;14.41;100.00
41800;BME280;27468;47.460;19.034;2023-10-13T02:46:21;100606.75;;;14.49;100.00
41800;BME280;27468;47.460;19.034;2023-10-13T02:48:48;100618.16;;;14.53;100.00
41800;BME280;27468;47.460;19.034;2023-10-13T02:51:23;100610.38;;;14.47;100.00
41800;BME280;27468;47.460;19.034;2023-10-13T02:54:01;100618.47;;;14.44;100.00
41800;BME280;27468;47.460;19.034;2023-10-13T02:56:29;100615.00;;;14.42;100.00
41800;BME280;27468;47.460;19.034;2023-10-13T02:58:55;100622.78;;;14.46;100.00
41800;BME280;27468;47.460;19.034;2023-10-13T03:01:31;100645.53;;;14.53;100.00
41800;BME280;27468;47.460;19.034;2023-10-13T03:04:00;100638.44;;;14.54;100.00
41800;BME280;27468;47.460;19.034;2023-10-13T03:06:26;100639.91;;;14.64;100.00
41800;BME280;27468;47.460;19.034;2023-10-13T03:09:05;100592.91;;;14.40;100.00
41800;BME280;27468;47.460;19.034;2023-10-13T03:11:41;100635.56;;;14.62;100.00
41800;BME280;27468;47.460;19.034;2023-10-13T03:14:20;100635.31;;;14.69;100.00
41800;BME280;27468;47.460;19.034;2023-10-13T03:17:05;100573.63;;;14.35;100.00
41800;BME280;27468;47.460;19.034;2023-10-13T03:19:34;100583.16;;;14.42;100.00
41800;BME280;27468;47.460;19.034;2023-10-13T03:22:05;100564.66;;;14.39;100.00
41800;BME280;27468;47.460;19.034;2023-10-13T03:24:40;100613.31;;;14.66;100.00
41800;BME280;27468;47.460;19.034;2023-10-13T03:27:19;100601.78;;;14.67;100.00
41800;BME280;27468;47.460;19.034;2023-10-13T03:29:49;100587.75;;;14.63;100.00
41800;BME280;27468;47.460;19.034;2023-10-13T03:32:21;100595.59;;;14.66;100.00
41800;BME280;27468;47.460;19.034;2023-10-13T03:34:47;100588.50;;;14.67;100.00
41800;BME280;27468;47.460;19.034;2023-10-13T03:37:24;100602.66;;;14.67;100.00
41800;BME280;27468;47.460;19.034;2023-10-13T03:40:07;100578.09;;;14.61;100.00
41800;BME280;27468;47.460;19.034;2023-10-13T03:42:49;100604.06;;;14.77;100.00
41800;BME280;27468;47.460;19.034;2023-10-13T03:45:34;100492.84;;;14.18;100.00
41800;BME280;27468;47.460;19.034;2023-10-13T03:48:09;100550.69;;;14.60;100.00
41800;BME280;27468;47.460;19.034;2023-10-13T03:50:36;100579.47;;;14.72;100.00
41800;BME280;27468;47.460;19.034;2023-10-13T03:53:03;100579.47;;;14.72;100.00
41800;BME280;27468;47.460;19.034;2023-10-13T03:55:31;100575.00;;;14.74;100.00
41800;BME280;27468;47.460;19.034;2023-10-13T03:58:00;100503.41;;;14.46;100.00
41800;BME280;27468;47.460;19.034;2023-10-13T04:00:25;100537.13;;;14.69;100.00
41800;BME280;27468;47.460;19.034;2023-10-13T04:02:53;100579.88;;;14.86;100.00
41800;BME280;27468;47.460;19.034;2023-10-13T04:05:28;100564.13;;;14.82;100.00
41800;BME280;27468;47.460;19.034;2023-10-13T04:08:29;100572.13;;;14.80;100.00
41800;BME280;27468;47.460;19.034;2023-10-13T04:10:56;100551.97;;;14.75;100.00
41800;BME280;27468;47.460;19.034;2023-10-13T04:13:22;100566.88;;;14.79;100.00
41800;BME280;27468;47.460;19.034;2023-10-13T04:16:10;100544.06;;;14.73;100.00
41800;BME280;27468;47.460;19.034;2023-10-13T04:18:50;100522.22;;;14.65;100.00
41800;BME280;27468;47.460;19.034;2023-10-13T04:21:25;100545.75;;;14.76;100.00
41800;BME280;27468;47.460;19.034;2023-10-13T04:24:22;100565.69;;;14.88;100.00
41800;BME280;27468;47.460;19.034;2023-10-13T04:27:22;100544.56;;;14.58;100.00
41800;BME280;27468;47.460;19.034;2023-10-13T04:30:19;100539.31;;;14.57;100.00
41800;BME280;27468;47.460;19.034;2023-10-13T04:32:52;100556.63;;;14.68;100.00
41800;BME280;27468;47.460;19.034;2023-10-13T04:35:37;100584.28;;;14.88;100.00
41800;BME280;27468;47.460;19.034;2023-10-13T04:38:12;100471.25;;;14.29;100.00
41800;BME280;27468;47.460;19.034;2023-10-13T04:40:45;100513.66;;;14.57;100.00
41800;BME280;27468;47.460;19.034;2023-10-13T04:43:24;100517.69;;;14.69;100.00
41800;BME280;27468;47.460;19.034;2023-10-13T04:46:02;100553.19;;;14.91;100.00
41800;BME280;27468;47.460;19.034;2023-10-13T04:48:47;100563.53;;;14.99;100.00
41800;BME280;27468;47.460;19.034;2023-10-13T04:51:13;100533.28;;;14.78;100.00
41800;BME280;27468;47.460;19.034;2023-10-13T04:53:57;100528.03;;;14.76;100.00
41800;BME280;27468;47.460;19.034;2023-10-13T04:56:28;100561.91;;;14.95;100.00
41800;BME280;27468;47.460;19.034;2023-10-13T04:59:23;100574.78;;;15.05;100.00
41800;BME280;27468;47.460;19.034;2023-10-13T05:02:02;100534.00;;;14.83;100.00
41800;BME280;27468;47.460;19.034;2023-10-13T05:04:46;100574.63;;;15.10;100.00
41800;BME280;27468;47.460;19.034;2023-10-13T05:07:33;100546.94;;;14.92;100.00
41800;BME280;27468;47.460;19.034;2023-10-13T05:10:17;100552.31;;;14.91;100.00
41800;BME280;27468;47.460;19.034;2023-10-13T05:13:02;100560.53;;;14.83;100.00
41800;BME280;27468;47.460;19.034;2023-10-13T05:15:50;100564.22;;;14.79;100.00
41800;BME280;27468;47.460;19.034;2023-10-13T05:18:35;100589.84;;;15.05;100.00
41800;BME280;27468;47.460;19.034;2023-10-13T05:21:19;100532.09;;;14.86;100.00
41800;BME280;27468;47.460;19.034;2023-10-13T05:24:04;100593.47;;;15.02;100.00
41800;BME280;27468;47.460;19.034;2023-10-13T05:26:48;100597.94;;;15.02;100.00
41800;BME280;27468;47.460;19.034;2023-10-13T05:29:32;100625.88;;;15.12;100.00
41800;BME280;27468;47.460;19.034;2023-10-13T05:32:16;100570.34;;;14.81;100.00
41800;BME280;27468;47.460;19.034;2023-10-13T05:35:00;100578.97;;;14.88;100.00
41800;BME280;27468;47.460;19.034;2023-10-13T05:37:44;100600.00;;;14.94;100.00
41800;BME280;27468;47.460;19.034;2023-10-13T05:40:28;100648.75;;;15.16;100.00
41800;BME280;27468;47.460;19.034;2023-10-13T05:43:12;100613.16;;;14.97;100.00
41800;BME280;27468;47.460;19.034;2023-10-13T05:46:02;100600.03;;;14.92;100.00
41800;BME280;27468;47.460;19.034;2023-10-13T05:49:02;100585.81;;;14.95;100.00
41800;BME280;27468;47.460;19.034;2023-10-13T05:51:31;100643.78;;;15.32;100.00
41800;BME280;27468;47.460;19.034;2023-10-13T05:53:57;100583.03;;;14.98;100.00
41800;BME280;27468;47.460;19.034;2023-10-13T05:56:48;100654.25;;;15.36;100.00
41800;BME280;27468;47.460;19.034;2023-10-13T05:59:35;100614.44;;;15.10;100.00
41800;BME280;27468;47.460;19.034;2023-10-13T06:02:21;100627.56;;;15.14;100.00
41800;BME280;27468;47.460;19.034;2023-10-13T06:05:10;100603.16;;;15.03;100.00
41800;BME280;27468;47.460;19.034;2023-10-13T06:07:55;100656.00;;;15.37;100.00
41800;BME280;27468;47.460;19.034;2023-10-13T06:10:39;100644.56;;;15.35;100.00
41800;BME280;27468;47.460;19.034;2023-10-13T06:13:24;100617.56;;;15.23;100.00
41800;BME280;27468;47.460;19.034;2023-10-13T06:16:10;100614.09;;;15.20;100.00
41800;BME280;27468;47.460;19.034;2023-10-13T06:18:54;100670.59;;;15.50;100.00
41800;BME280;27468;47.460;19.034;2023-10-13T06:21:38;100658.22;;;15.49;100.00
41800;BME280;27468;47.460;19.034;2023-10-13T06:24:23;100663.53;;;15.49;100.00
41800;BME280;27468;47.460;19.034;2023-10-13T06:27:07;100673.72;;;15.62;100.00
41800;BME280;27468;47.460;19.034;2023-10-13T06:29:51;100618.09;;;15.32;100.00
41800;BME280;27468;47.460;19.034;2023-10-13T06:32:22;100676.19;;;15.68;100.00
41800;BME280;27468;47.460;19.034;2023-10-13T06:34:57;100668.56;;;15.59;100.00
41800;BME280;27468;47.460;19.034;2023-10-13T06:37:27;100636.31;;;15.43;100.00
41800;BME280;27468;47.460;19.034;2023-10-13T06:40:00;100654.59;;;15.52;100.00
41800;BME280;27468;47.460;19.034;2023-10-13T06:42:33;100630.34;;;15.36;100.00
41800;BME280;27468;47.460;19.034;2023-10-13T06:45:08;100665.31;;;15.49;100.00
41800;BME280;27468;47.460;19.034;2023-10-13T06:47:35;100671.34;;;15.54;100.00
41800;BME280;27468;47.460;19.034;2023-10-13T06:50:14;100682.41;;;15.67;100.00
41800;BME280;27468;47.460;19.034;2023-10-13T06:52:45;100701.44;;;15.79;100.00
41800;BME280;27468;47.460;19.034;2023-10-13T06:55:14;100664.13;;;15.59;100.00
41800;BME280;27468;47.460;19.034;2023-10-13T06:57:43;100728.78;;;15.83;100.00
41800;BME280;27468;47.460;19.034;2023-10-13T07:00:09;100684.97;;;15.70;100.00
41800;BME280;27468;47.460;19.034;2023-10-13T07:02:44;100708.44;;;15.82;100.00
41800;BME280;27468;47.460;19.034;2023-10-13T07:05:09;100730.09;;;15.96;100.00
41800;BME280;27468;47.460;19.034;2023-10-13T07:07:39;100738.59;;;16.06;100.00
41800;BME280;27468;47.460;19.034;2023-10-13T07:10:11;100734.31;;;16.02;100.00
41800;BME280;27468;47.460;19.034;2023-10-13T07:12:39;100709.81;;;15.94;100.00
41800;BME280;27468;47.460;19.034;2023-10-13T07:15:11;100722.44;;;16.12;100.00
41800;BME280;27468;47.460;19.034;2023-10-13T07:17:46;100724.34;;;16.08;100.00
41800;BME280;27468;47.460;19.034;2023-10-13T07:20:12;100705.13;;;16.00;100.00
41800;BME280;27468;47.460;19.034;2023-10-13T07:22:42;100695.75;;;15.90;100.00
41800;BME280;27468;47.460;19.034;2023-10-13T07:25:21;100693.78;;;15.95;100.00
41800;BME280;27468;47.460;19.034;2023-10-13T07:27:51;100719.75;;;16.12;100.00
41800;BME280;27468;47.460;19.034;2023-10-13T07:30:17;100697.09;;;16.02;100.00
41800;BME280;27468;47.460;19.034;2023-10-13T07:32:45;100689.34;;;15.96;100.00
41800;BME280;27468;47.460;19.034;2023-10-13T07:35:12;100696.81;;;16.09;100.00
41800;BME280;27468;47.460;19.034;2023-10-13T07:37:38;100647.88;;;15.90;100.00
41800;BME280;27468;47.460;19.034;2023-10-13T07:40:08;100738.09;;;16.43;100.00
41800;BME280;27468;47.460;19.034;2023-10-13T07:42:53;100673.00;;;16.28;100.00
41800;BME280;27468;47.460;19.034;2023-10-13T07:45:26;100619.00;;;16.04;100.00
41800;BME280;27468;47.460;19.034;2023-10-13T07:48:04;100734.28;;;16.73;100.00
41800;BME280;27468;47.460;19.034;2023-10-13T07:50:40;100691.63;;;16.51;100.00
41800;BME280;27468;47.460;19.034;2023-10-13T07:53:06;100691.78;;;16.47;100.00
41800;BME280;27468;47.460;19.034;2023-10-13T07:55:40;100645.34;;;16.32;100.00
41800;BME280;27468;47.460;19.034;2023-10-13T07:58:05;100664.25;;;16.48;100.00
41800;BME280;27468;47.460;19.034;2023-10-13T08:00:33;100653.56;;;16.49;100.00
41800;BME280;27468;47.460;19.034;2023-10-13T08:03:24;100709.47;;;16.93;100.00
41800;BME280;27468;47.460;19.034;2023-10-13T08:06:05;100679.63;;;16.63;100.00
41800;BME280;27468;47.460;19.034;2023-10-13T08:08:33;100730.41;;;17.02;100.00
41800;BME280;27468;47.460;19.034;2023-10-13T08:11:12;100697.16;;;16.91;100.00
41800;BME280;27468;47.460;19.034;2023-10-13T08:13:57;100743.19;;;17.16;100.00
41800;BME280;27468;47.460;19.034;2023-10-13T08:16:35;100729.53;;;17.24;100.00
41800;BME280;27468;47.460;19.034;2023-10-13T08:19:14;100727.63;;;17.27;100.00
41800;BME280;27468;47.460;19.034;2023-10-13T08:21:42;100687.69;;;17.05;100.00
41800;BME280;27468;47.460;19.034;2023-10-13T08:24:15;100695.22;;;17.16;100.00
41800;BME280;27468;47.460;19.034;2023-10-13T08:26:41;100655.78;;;17.04;100.00
41800;BME280;27468;47.460;19.034;2023-10-13T08:29:45;100727.56;;;17.49;100.00
41800;BME280;27468;47.460;19.034;2023-10-13T08:32:19;100693.84;;;17.28;100.00
41800;BME280;27468;47.460;19.034;2023-10-13T08:35:00;100710.75;;;17.47;100.00
41800;BME280;27468;47.460;19.034;2023-10-13T08:37:35;100678.53;;;17.33;100.00
41800;BME280;27468;47.460;19.034;2023-10-13T08:40:27;100682.50;;;17.43;100.00
41800;BME280;27468;47.460;19.034;2023-10-13T08:43:11;100695.31;;;17.55;100.00
41800;BME280;27468;47.460;19.034;2023-10-13T08:45:39;100725.06;;;17.66;100.00
41800;BME280;27468;47.460;19.034;2023-10-13T08:48:05;100751.13;;;17.80;100.00
41800;BME280;27468;47.460;19.034;2023-10-13T08:50:39;100735.34;;;17.75;100.00
41800;BME280;27468;47.460;19.034;2023-10-13T08:53:22;100750.38;;;17.97;100.00
41800;BME280;27468;47.460;19.034;2023-10-13T08:56:01;100747.50;;;18.01;100.00
41800;BME280;27468;47.460;19.034;2023-10-13T08:58:26;100718.56;;;17.92;100.00
41800;BME280;27468;47.460;19.034;2023-10-13T09:01:12;100696.66;;;17.86;100.00
41800;BME280;27468;47.460;19.034;2023-10-13T09:03:40;100721.34;;;18.09;100.00
41800;BME280;27468;47.460;19.034;2023-10-13T09:06:12;100647.19;;;17.78;100.00
41800;BME280;27468;47.460;19.034;2023-10-13T09:08:40;100735.59;;;18.29;100.00
41800;BME280;27468;47.460;19.034;2023-10-13T09:11:25;100671.41;;;17.93;100.00
41800;BME280;27468;47.460;19.034;2023-10-13T09:13:52;100704.50;;;18.28;100.00
41800;BME280;27468;47.460;19.034;2023-10-13T09:16:18;100722.53;;;18.41;100.00
41800;BME280;27468;47.460;19.034;2023-10-13T09:19:04;100694.47;;;18.33;100.00
41800;BME280;27468;47.460;19.034;2023-10-13T09:21:40;100725.06;;;18.63;100.00
41800;BME280;27468;47.460;19.034;2023-10-13T09:24:08;100736.13;;;18.74;100.00
41800;BME280;27468;47.460;19.034;2023-10-13T09:26:53;100728.03;;;18.76;100.00
41800;BME280;27468;47.460;19.034;2023-10-13T09:29:21;100732.72;;;18.90;100.00
41800;BME280;27468;47.460;19.034;2023-10-13T09:31:57;100736.53;;;19.03;100.00
41800;BME280;27468;47.460;19.034;2023-10-13T09:34:25;100741.06;;;19.01;99.66
41800;BME280;27468;47.460;19.034;2023-10-13T09:36:57;100733.44;;;19.10;99.51
41800;BME280;27468;47.460;19.034;2023-10-13T09:39:26;100731.44;;;19.33;99.58
41800;BME280;27468;47.460;19.034;2023-10-13T09:42:21;100723.91;;;19.41;98.51
41800;BME280;27468;47.460;19.034;2023-10-13T09:44:49;100727.03;;;19.49;98.14
41800;BME280;27468;47.460;19.034;2023-10-13T09:47:22;100726.38;;;19.63;96.83
41800;BME280;27468;47.460;19.034;2023-10-13T09:49:59;100688.63;;;19.52;96.44
41800;BME280;27468;47.460;19.034;2023-10-13T09:52:31;100729.66;;;19.68;95.75
41800;BME280;27468;47.460;19.034;2023-10-13T09:55:11;100728.94;;;19.82;96.25
41800;BME280;27468;47.460;19.034;2023-10-13T09:57:42;100725.38;;;19.98;96.09
41800;BME280;27468;47.460;19.034;2023-10-13T10:00:15;100712.63;;;20.03;94.36
41800;BME280;27468;47.460;19.034;2023-10-13T10:03:01;100725.50;;;20.13;94.05
41800;BME280;27468;47.460;19.034;2023-10-13T10:05:43;100704.66;;;20.02;93.08
41800;BME280;27468;47.460;19.034;2023-10-13T10:08:23;100676.91;;;19.87;93.38
41800;BME280;27468;47.460;19.034;2023-10-13T10:11:04;100714.09;;;20.09;93.63
41800;BME280;27468;47.460;19.034;2023-10-13T10:17:08;100699.31;;;20.02;93.09
41800;BME280;27468;47.460;19.034;2023-10-13T10:19:47;100669.53;;;19.75;93.43
41800;BME280;27468;47.460;19.034;2023-10-13T10:22:13;100699.63;;;19.96;93.84
41800;BME280;27468;47.460;19.034;2023-10-13T10:24:56;100646.88;;;19.65;93.88
41800;BME280;27468;47.460;19.034;2023-10-13T10:27:28;100657.34;;;19.69;94.39
41800;BME280;27468;47.460;19.034;2023-10-13T10:29:58;100667.81;;;19.74;94.78
41800;BME280;27468;47.460;19.034;2023-10-13T10:35:10;100646.69;;;19.52;95.39
41800;BME280;27468;47.460;19.034;2023-10-13T10:37:46;100688.34;;;19.73;95.31
41800;BME280;27468;47.460;19.034;2023-10-13T10:40:15;100654.31;;;19.60;95.48
41800;BME280;27468;47.460;19.034;2023-10-13T10:42:59;100675.75;;;19.75;95.59
41800;BME280;27468;47.460;19.034;2023-10-13T10:45:29;100632.38;;;19.53;95.36
41800;BME280;27468;47.460;19.034;2023-10-13T10:47:58;100666.69;;;19.78;95.79
41800;BME280;27468;47.460;19.034;2023-10-13T10:50:27;100617.66;;;19.62;95.56
41800;BME280;27468;47.460;19.034;2023-10-13T10:53:04;100657.16;;;19.90;94.92
41800;BME280;27468;47.460;19.034;2023-10-13T10:55:35;100652.50;;;19.93;94.63
41800;BME280;27468;47.460;19.034;2023-10-13T10:58:02;100623.56;;;19.84;94.84
41800;BME280;27468;47.460;19.034;2023-10-13T11:00:31;100659.69;;;20.08;94.55
41800;BME280;27468;47.460;19.034;2023-10-13T11:03:15;100649.69;;;20.12;95.20
41800;BME280;27468;47.460;19.034;2023-10-13T11:05:47;100640.53;;;20.16;96.31
41800;BME280;27468;47.460;19.034;2023-10-13T11:08:23;100620.06;;;20.15;95.65
41800;BME280;27468;47.460;19.034;2023-10-13T11:11:09;100606.53;;;20.18;94.73
41800;BME280;27468;47.460;19.034;2023-10-13T11:13:44;100632.00;;;20.41;94.15
41800;BME280;27468;47.460;19.034;2023-10-13T11:16:45;100647.38;;;20.69;93.81
41800;BME280;27468;47.460;19.034;2023-10-13T11:19:15;100633.16;;;20.83;93.80
41800;BME280;27468;47.460;19.034;2023-10-13T11:21:41;100623.47;;;20.96;92.61
41800;BME280;27468;47.460;19.034;2023-10-13T11:24:07;100598.66;;;20.92;91.69
41800;BME280;27468;47.460;19.034;2023-10-13T11:26:37;100618.31;;;21.23;92.19
41800;BME280;27468;47.460;19.034;2023-10-13T11:29:19;100613.63;;;21.40;89.91
41800;BME280;27468;47.460;19.034;2023-10-13T11:31:48;100627.56;;;21.61;90.07
41800;BME280;27468;47.460;19.034;2023-10-13T11:34:23;100634.47;;;21.80;90.44
41800;BME280;27468;47.460;19.034;2023-10-13T11:36:48;100611.56;;;21.88;89.13
41800;BME280;27468;47.460;19.034;2023-10-13T11:39:13;100623.94;;;22.05;87.81
41800;BME280;27468;47.460;19.034;2023-10-13T11:41:58;100615.00;;;22.19;87.53
41800;BME280;27468;47.460;19.034;2023-10-13T11:44:23;100624.38;;;22.26;85.72
41800;BME280;27468;47.460;19.034;2023-10-13T11:46:50;100602.81;;;22.27;85.04
41800;BME280;27468;47.460;19.034;2023-10-13T11:49:21;100615.25;;;22.43;83.86
41800;BME280;27468;47.460;19.034;2023-10-13T11:51:53;100610.88;;;22.54;83.56
41800;BME280;27468;47.460;19.034;2023-10-13T11:54:27;100585.19;;;22.50;83.59
41800;BME280;27468;47.460;19.034;2023-10-13T11:56:53;100629.44;;;22.71;82.20
41800;BME280;27468;47.460;19.034;2023-10-13T11:59:23;100595.91;;;22.77;82.32
41800;BME280;27468;47.460;19.034;2023-10-13T12:01:52;100614.50;;;22.94;82.56
41800;BME280;27468;47.460;19.034;2023-10-13T12:04:37;100604.28;;;22.99;81.12
41800;BME280;27468;47.460;19.034;2023-10-13T12:07:21;100608.50;;;23.03;80.54
41800;BME280;27468;47.460;19.034;2023-10-13T12:10:06;100588.16;;;23.12;80.42
41800;BME280;27468;47.460;19.034;2023-10-13T12:12:40;100600.72;;;23.12;79.22
41800;BME280;27468;47.460;19.034;2023-10-13T12:15:08;100593.00;;;23.07;79.47
41800;BME280;27468;47.460;19.034;2023-10-13T12:17:50;100591.28;;;23.19;79.34
41800;BME280;27468;47.460;19.034;2023-10-13T12:20:16;100588.38;;;23.22;79.25
41800;BME280;27468;47.460;19.034;2023-10-13T12:22:57;100580.72;;;23.16;78.73
41800;BME280;27468;47.460;19.034;2023-10-13T12:25:25;100536.09;;;23.00;78.33
41800;BME280;27468;47.460;19.034;2023-10-13T12:27:52;100552.00;;;23.16;78.31
41800;BME280;27468;47.460;19.034;2023-10-13T12:30:22;100569.78;;;23.31;77.40
41800;BME280;27468;47.460;19.034;2023-10-13T12:33:01;100548.25;;;23.31;77.60
41800;BME280;27468;47.460;19.034;2023-10-13T12:35:34;100569.47;;;23.49;77.22
41800;BME280;27468;47.460;19.034;2023-10-13T12:38:11;100581.56;;;23.56;76.11
41800;BME280;27468;47.460;19.034;2023-10-13T12:41:05;100537.59;;;23.43;75.26
41800;BME280;27468;47.460;19.034;2023-10-13T12:43:49;100571.63;;;23.69;75.44
41800;BME280;27468;47.460;19.034;2023-10-13T12:46:33;100530.81;;;23.50;75.14
41800;BME280;27468;47.460;19.034;2023-10-13T12:49:17;100560.22;;;23.65;75.27
41800;BME280;27468;47.460;19.034;2023-10-13T12:52:01;100516.09;;;23.43;74.76
41800;BME280;27468;47.460;19.034;2023-10-13T12:54:27;100503.06;;;23.36;74.37
41800;BME280;27468;47.460;19.034;2023-10-13T12:57:00;100539.97;;;23.47;74.12
41800;BME280;27468;47.460;19.034;2023-10-13T12:59:26;100496.72;;;23.25;73.72
41800;BME280;27468;47.460;19.034;2023-10-13T13:01:52;100521.69;;;23.39;73.75
41800;BME280;27468;47.460;19.034;2023-10-13T13:04:18;100523.19;;;23.44;73.74
41800;BME280;27468;47.460;19.034;2023-10-13T13:06:46;100521.03;;;23.36;73.61
41800;BME280;27468;47.460;19.034;2023-10-13T13:09:11;100484.66;;;23.18;72.91
41800;BME280;27468;47.460;19.034;2023-10-13T13:11:37;100520.06;;;23.37;71.19
41800;BME280;27468;47.460;19.034;2023-10-13T13:14:08;100500.38;;;23.24;69.04
41800;BME280;27468;47.460;19.034;2023-10-13T13:16:35;100473.25;;;23.14;68.85
41800;BME280;27468;47.460;19.034;2023-10-13T13:19:01;100531.16;;;23.45;70.14
41800;BME280;27468;47.460;19.034;2023-10-13T13:21:38;100524.91;;;23.45;70.27
41800;BME280;27468;47.460;19.034;2023-10-13T13:24:05;100478.13;;;23.09;70.76